Princeton/Rocky Hill (39N)
Princeton, NJ
Field Elevation: 128
Lat: 40°23.94N  Long: 74°39.54W
CTAF/Unicom Freq: 122.7250
   
     For Weather-by-Phone, call (609)-924-3901
Weather Advisories
3/3/2015 22:34 Z
Altimeter 30.13" Hg
Wind 190° @ 3 KT
Gusts --
Visibility 2 1/2 SM
Ceiling SCT011 BKN043 OVC052
Temperature -2° C (28° F)
Dewpoint -3° C (27° F)
Relative Humidity 90%
Density Altitude --
Condensation Altitude --
Wind Chill -4° C (25° F)
  Wind and Runways
Indicated Runway = 10
History
 
 
More Info
All DigiWx sites map
 
NOAA Forecast
 
Airport IQ 5010
(OCNJ) Ocean City
(PN44) Upper Gwynedd Heliport
 
about DigiWx
 
FAA Disclaimer: The data displayed is for advisory purposes only and is not to be used for flight planning or operations. For official data, please call (609)-924-3901 to hear the current automated AWOS voice message.
  METAR 39N 032234Z AUTO 19003KT 2 1/2SM SCT011 BKN043 OVC052 M02/M03 A3013